sensor_id;sensor_type;location;lat;lon;timestamp;P1;durP1;ratioP1;P2;durP2;ratioP2
46897;SDS011;32646;50.958;6.258;2023-06-22T00:00:58;7.47;;;4.03;;
46897;SDS011;32646;50.958;6.258;2023-06-22T00:03:25;6.95;;;3.60;;
46897;SDS011;32646;50.958;6.258;2023-06-22T00:05:52;6.75;;;4.10;;
46897;SDS011;32646;50.958;6.258;2023-06-22T00:08:19;7.10;;;3.53;;
46897;SDS011;32646;50.958;6.258;2023-06-22T00:10:46;9.43;;;4.00;;
46897;SDS011;32646;50.958;6.258;2023-06-22T00:13:13;7.70;;;3.72;;
46897;SDS011;32646;50.958;6.258;2023-06-22T00:15:40;7.03;;;3.88;;
46897;SDS011;32646;50.958;6.258;2023-06-22T00:18:07;9.07;;;3.83;;
46897;SDS011;32646;50.958;6.258;2023-06-22T00:20:35;6.55;;;3.55;;
46897;SDS011;32646;50.958;6.258;2023-06-22T00:23:03;7.90;;;3.83;;
46897;SDS011;32646;50.958;6.258;2023-06-22T00:25:30;6.07;;;3.30;;
46897;SDS011;32646;50.958;6.258;2023-06-22T00:27:57;6.97;;;3.33;;
46897;SDS011;32646;50.958;6.258;2023-06-22T00:30:24;6.05;;;3.30;;
46897;SDS011;32646;50.958;6.258;2023-06-22T00:32:50;7.10;;;3.40;;
46897;SDS011;32646;50.958;6.258;2023-06-22T00:35:17;7.80;;;3.78;;
46897;SDS011;32646;50.958;6.258;2023-06-22T00:37:44;6.90;;;3.65;;
46897;SDS011;32646;50.958;6.258;2023-06-22T00:40:10;7.90;;;3.83;;
46897;SDS011;32646;50.958;6.258;2023-06-22T00:42:38;6.35;;;3.47;;
46897;SDS011;32646;50.958;6.258;2023-06-22T00:45:05;7.32;;;3.83;;
46897;SDS011;32646;50.958;6.258;2023-06-22T00:47:34;6.40;;;3.72;;
46897;SDS011;32646;50.958;6.258;2023-06-22T00:50:01;6.68;;;3.90;;
46897;SDS011;32646;50.958;6.258;2023-06-22T00:52:32;6.35;;;3.45;;
46897;SDS011;32646;50.958;6.258;2023-06-22T00:54:59;6.05;;;2.95;;
46897;SDS011;32646;50.958;6.258;2023-06-22T00:57:28;6.78;;;3.58;;
46897;SDS011;32646;50.958;6.258;2023-06-22T00:59:55;7.50;;;4.07;;
46897;SDS011;32646;50.958;6.258;2023-06-22T01:02:22;7.43;;;4.00;;
46897;SDS011;32646;50.958;6.258;2023-06-22T01:04:48;8.07;;;3.65;;
46897;SDS011;32646;50.958;6.258;2023-06-22T01:07:31;7.70;;;4.18;;
46897;SDS011;32646;50.958;6.258;2023-06-22T01:10:08;9.52;;;4.15;;
46897;SDS011;32646;50.958;6.258;2023-06-22T01:12:52;8.55;;;3.92;;
46897;SDS011;32646;50.958;6.258;2023-06-22T01:15:27;8.32;;;4.55;;
46897;SDS011;32646;50.958;6.258;2023-06-22T01:17:57;9.80;;;4.47;;
46897;SDS011;32646;50.958;6.258;2023-06-22T01:20:25;8.60;;;4.25;;
46897;SDS011;32646;50.958;6.258;2023-06-22T01:25:38;8.10;;;4.57;;
46897;SDS011;32646;50.958;6.258;2023-06-22T01:28:38;7.72;;;5.13;;
46897;SDS011;32646;50.958;6.258;2023-06-22T01:31:19;11.05;;;5.22;;
46897;SDS011;32646;50.958;6.258;2023-06-22T01:33:51;8.07;;;4.28;;
46897;SDS011;32646;50.958;6.258;2023-06-22T01:36:20;10.20;;;5.40;;
46897;SDS011;32646;50.958;6.258;2023-06-22T01:38:48;9.65;;;5.05;;
46897;SDS011;32646;50.958;6.258;2023-06-22T01:41:16;10.38;;;5.40;;
46897;SDS011;32646;50.958;6.258;2023-06-22T01:43:43;9.52;;;4.88;;
46897;SDS011;32646;50.958;6.258;2023-06-22T01:46:11;12.23;;;5.97;;
46897;SDS011;32646;50.958;6.258;2023-06-22T01:48:38;9.75;;;5.30;;
46897;SDS011;32646;50.958;6.258;2023-06-22T01:51:05;8.05;;;4.75;;
46897;SDS011;32646;50.958;6.258;2023-06-22T01:53:32;10.00;;;5.03;;
46897;SDS011;32646;50.958;6.258;2023-06-22T01:55:59;10.52;;;5.30;;
46897;SDS011;32646;50.958;6.258;2023-06-22T01:58:26;9.25;;;4.90;;
46897;SDS011;32646;50.958;6.258;2023-06-22T02:00:56;10.13;;;5.65;;
46897;SDS011;32646;50.958;6.258;2023-06-22T02:03:44;11.95;;;6.63;;
46897;SDS011;32646;50.958;6.258;2023-06-22T02:06:20;10.18;;;5.97;;
46897;SDS011;32646;50.958;6.258;2023-06-22T02:08:58;12.77;;;6.07;;
46897;SDS011;32646;50.958;6.258;2023-06-22T02:11:28;11.60;;;6.10;;
46897;SDS011;32646;50.958;6.258;2023-06-22T02:13:57;11.48;;;5.63;;
46897;SDS011;32646;50.958;6.258;2023-06-22T02:16:23;10.82;;;5.85;;
46897;SDS011;32646;50.958;6.258;2023-06-22T02:18:51;9.10;;;5.43;;
46897;SDS011;32646;50.958;6.258;2023-06-22T02:21:18;13.23;;;6.65;;
46897;SDS011;32646;50.958;6.258;2023-06-22T02:23:45;11.45;;;5.60;;
46897;SDS011;32646;50.958;6.258;2023-06-22T02:26:12;9.43;;;5.72;;
46897;SDS011;32646;50.958;6.258;2023-06-22T02:28:39;10.25;;;5.82;;
46897;SDS011;32646;50.958;6.258;2023-06-22T02:31:06;11.45;;;6.28;;
46897;SDS011;32646;50.958;6.258;2023-06-22T02:33:32;10.38;;;5.50;;
46897;SDS011;32646;50.958;6.258;2023-06-22T02:35:59;9.35;;;5.50;;
46897;SDS011;32646;50.958;6.258;2023-06-22T02:38:26;10.68;;;5.45;;
46897;SDS011;32646;50.958;6.258;2023-06-22T02:40:52;9.65;;;5.90;;
46897;SDS011;32646;50.958;6.258;2023-06-22T02:43:19;11.40;;;6.13;;
46897;SDS011;32646;50.958;6.258;2023-06-22T02:45:45;11.52;;;6.10;;
46897;SDS011;32646;50.958;6.258;2023-06-22T02:48:12;11.77;;;5.88;;
46897;SDS011;32646;50.958;6.258;2023-06-22T02:50:39;9.90;;;6.05;;
46897;SDS011;32646;50.958;6.258;2023-06-22T02:53:05;12.80;;;6.25;;
46897;SDS011;32646;50.958;6.258;2023-06-22T02:55:32;13.02;;;6.00;;
46897;SDS011;32646;50.958;6.258;2023-06-22T02:57:58;9.55;;;5.68;;
46897;SDS011;32646;50.958;6.258;2023-06-22T03:00:25;10.23;;;5.75;;
46897;SDS011;32646;50.958;6.258;2023-06-22T03:02:52;11.68;;;6.28;;
46897;SDS011;32646;50.958;6.258;2023-06-22T03:05:19;11.80;;;6.20;;
46897;SDS011;32646;50.958;6.258;2023-06-22T03:07:45;10.90;;;5.72;;
46897;SDS011;32646;50.958;6.258;2023-06-22T03:10:12;13.20;;;6.85;;
46897;SDS011;32646;50.958;6.258;2023-06-22T03:12:40;11.43;;;5.95;;
46897;SDS011;32646;50.958;6.258;2023-06-22T03:15:08;11.88;;;6.70;;
46897;SDS011;32646;50.958;6.258;2023-06-22T03:17:36;12.90;;;6.57;;
46897;SDS011;32646;50.958;6.258;2023-06-22T03:20:05;11.50;;;7.18;;
46897;SDS011;32646;50.958;6.258;2023-06-22T03:22:32;10.70;;;6.63;;
46897;SDS011;32646;50.958;6.258;2023-06-22T03:24:58;10.90;;;5.93;;
46897;SDS011;32646;50.958;6.258;2023-06-22T03:27:25;11.73;;;6.25;;
46897;SDS011;32646;50.958;6.258;2023-06-22T03:29:52;11.68;;;6.50;;
46897;SDS011;32646;50.958;6.258;2023-06-22T03:32:18;13.13;;;6.47;;
46897;SDS011;32646;50.958;6.258;2023-06-22T03:34:45;12.77;;;5.80;;
46897;SDS011;32646;50.958;6.258;2023-06-22T03:37:11;10.38;;;6.10;;
46897;SDS011;32646;50.958;6.258;2023-06-22T03:39:39;11.63;;;6.55;;
46897;SDS011;32646;50.958;6.258;2023-06-22T03:42:06;14.27;;;6.07;;
46897;SDS011;32646;50.958;6.258;2023-06-22T03:44:33;13.68;;;7.68;;
46897;SDS011;32646;50.958;6.258;2023-06-22T03:47:00;12.55;;;7.10;;
46897;SDS011;32646;50.958;6.258;2023-06-22T03:49:27;12.00;;;6.55;;
46897;SDS011;32646;50.958;6.258;2023-06-22T03:51:53;13.73;;;7.10;;
46897;SDS011;32646;50.958;6.258;2023-06-22T03:54:20;12.63;;;6.78;;
46897;SDS011;32646;50.958;6.258;2023-06-22T03:56:46;14.07;;;6.85;;
46897;SDS011;32646;50.958;6.258;2023-06-22T03:59:13;12.15;;;6.85;;
46897;SDS011;32646;50.958;6.258;2023-06-22T04:01:40;11.73;;;7.25;;
46897;SDS011;32646;50.958;6.258;2023-06-22T04:04:06;12.50;;;7.30;;
46897;SDS011;32646;50.958;6.258;2023-06-22T04:06:33;12.68;;;6.93;;
46897;SDS011;32646;50.958;6.258;2023-06-22T04:09:00;13.80;;;7.00;;
46897;SDS011;32646;50.958;6.258;2023-06-22T04:11:26;14.43;;;7.43;;
46897;SDS011;32646;50.958;6.258;2023-06-22T04:13:53;12.45;;;7.30;;
46897;SDS011;32646;50.958;6.258;2023-06-22T04:16:19;15.02;;;7.80;;
46897;SDS011;32646;50.958;6.258;2023-06-22T04:18:46;14.32;;;7.00;;
46897;SDS011;32646;50.958;6.258;2023-06-22T04:21:13;12.02;;;7.15;;
46897;SDS011;32646;50.958;6.258;2023-06-22T04:23:39;14.13;;;7.82;;
46897;SDS011;32646;50.958;6.258;2023-06-22T04:26:06;13.88;;;6.78;;
46897;SDS011;32646;50.958;6.258;2023-06-22T04:28:33;15.23;;;7.60;;
46897;SDS011;32646;50.958;6.258;2023-06-22T04:30:59;12.77;;;6.57;;
46897;SDS011;32646;50.958;6.258;2023-06-22T04:33:26;13.73;;;7.43;;
46897;SDS011;32646;50.958;6.258;2023-06-22T04:35:53;14.32;;;7.63;;
46897;SDS011;32646;50.958;6.258;2023-06-22T04:38:19;13.07;;;7.90;;
46897;SDS011;32646;50.958;6.258;2023-06-22T04:40:46;17.10;;;8.63;;
46897;SDS011;32646;50.958;6.258;2023-06-22T04:43:12;15.20;;;9.02;;
46897;SDS011;32646;50.958;6.258;2023-06-22T04:45:39;13.25;;;7.82;;
46897;SDS011;32646;50.958;6.258;2023-06-22T04:48:06;14.00;;;7.93;;
46897;SDS011;32646;50.958;6.258;2023-06-22T04:50:33;15.13;;;7.35;;
46897;SDS011;32646;50.958;6.258;2023-06-22T04:52:59;12.48;;;7.18;;
46897;SDS011;32646;50.958;6.258;2023-06-22T04:55:26;12.57;;;8.07;;
46897;SDS011;32646;50.958;6.258;2023-06-22T04:57:52;13.32;;;7.63;;
46897;SDS011;32646;50.958;6.258;2023-06-22T05:00:19;15.52;;;7.90;;
46897;SDS011;32646;50.958;6.258;2023-06-22T05:02:46;11.20;;;7.22;;
46897;SDS011;32646;50.958;6.258;2023-06-22T05:05:13;13.25;;;7.50;;
46897;SDS011;32646;50.958;6.258;2023-06-22T05:07:43;13.25;;;6.80;;
46897;SDS011;32646;50.958;6.258;2023-06-22T05:10:11;12.50;;;7.15;;
46897;SDS011;32646;50.958;6.258;2023-06-22T05:12:39;13.23;;;7.65;;
46897;SDS011;32646;50.958;6.258;2023-06-22T05:15:07;12.23;;;7.90;;
46897;SDS011;32646;50.958;6.258;2023-06-22T05:17:35;13.48;;;6.97;;
46897;SDS011;32646;50.958;6.258;2023-06-22T05:20:02;11.05;;;7.25;;
46897;SDS011;32646;50.958;6.258;2023-06-22T05:22:29;13.10;;;7.20;;
46897;SDS011;32646;50.958;6.258;2023-06-22T05:24:55;13.80;;;7.55;;
46897;SDS011;32646;50.958;6.258;2023-06-22T05:27:22;13.90;;;7.50;;
46897;SDS011;32646;50.958;6.258;2023-06-22T05:29:49;12.93;;;7.38;;
46897;SDS011;32646;50.958;6.258;2023-06-22T05:32:15;13.45;;;7.65;;
46897;SDS011;32646;50.958;6.258;2023-06-22T05:34:42;15.25;;;7.47;;
46897;SDS011;32646;50.958;6.258;2023-06-22T05:37:08;16.17;;;8.32;;
46897;SDS011;32646;50.958;6.258;2023-06-22T05:39:35;12.50;;;7.32;;
46897;SDS011;32646;50.958;6.258;2023-06-22T05:42:02;16.40;;;7.32;;
46897;SDS011;32646;50.958;6.258;2023-06-22T05:44:28;13.48;;;6.55;;
46897;SDS011;32646;50.958;6.258;2023-06-22T05:46:55;12.13;;;7.65;;
46897;SDS011;32646;50.958;6.258;2023-06-22T05:49:22;17.40;;;7.60;;
46897;SDS011;32646;50.958;6.258;2023-06-22T05:51:48;12.05;;;6.80;;
46897;SDS011;32646;50.958;6.258;2023-06-22T05:54:15;15.07;;;7.60;;
46897;SDS011;32646;50.958;6.258;2023-06-22T05:56:41;11.90;;;7.20;;
46897;SDS011;32646;50.958;6.258;2023-06-22T05:59:08;11.20;;;6.55;;
46897;SDS011;32646;50.958;6.258;2023-06-22T06:01:34;11.98;;;6.43;;
46897;SDS011;32646;50.958;6.258;2023-06-22T06:04:04;12.75;;;6.60;;
46897;SDS011;32646;50.958;6.258;2023-06-22T06:06:31;14.15;;;6.75;;
46897;SDS011;32646;50.958;6.258;2023-06-22T06:08:57;13.77;;;7.15;;
46897;SDS011;32646;50.958;6.258;2023-06-22T06:11:24;12.55;;;6.80;;
46897;SDS011;32646;50.958;6.258;2023-06-22T06:13:51;10.93;;;6.35;;
46897;SDS011;32646;50.958;6.258;2023-06-22T06:16:18;12.75;;;6.45;;
46897;SDS011;32646;50.958;6.258;2023-06-22T06:18:44;10.40;;;6.43;;
46897;SDS011;32646;50.958;6.258;2023-06-22T06:21:11;13.07;;;7.03;;
46897;SDS011;32646;50.958;6.258;2023-06-22T06:23:37;14.90;;;6.32;;
46897;SDS011;32646;50.958;6.258;2023-06-22T06:26:04;10.15;;;6.47;;
46897;SDS011;32646;50.958;6.258;2023-06-22T06:28:31;14.65;;;7.40;;
46897;SDS011;32646;50.958;6.258;2023-06-22T06:30:57;11.77;;;6.75;;
46897;SDS011;32646;50.958;6.258;2023-06-22T06:33:24;15.10;;;7.97;;
46897;SDS011;32646;50.958;6.258;2023-06-22T06:35:51;14.20;;;7.68;;
46897;SDS011;32646;50.958;6.258;2023-06-22T06:38:18;12.23;;;7.20;;
46897;SDS011;32646;50.958;6.258;2023-06-22T06:40:44;13.95;;;7.63;;
46897;SDS011;32646;50.958;6.258;2023-06-22T06:43:11;13.40;;;7.35;;
46897;SDS011;32646;50.958;6.258;2023-06-22T06:45:37;12.75;;;6.70;;
46897;SDS011;32646;50.958;6.258;2023-06-22T06:48:04;10.82;;;7.10;;
46897;SDS011;32646;50.958;6.258;2023-06-22T06:50:31;10.95;;;7.15;;
46897;SDS011;32646;50.958;6.258;2023-06-22T06:52:58;14.95;;;7.05;;
46897;SDS011;32646;50.958;6.258;2023-06-22T06:55:25;11.88;;;6.70;;
46897;SDS011;32646;50.958;6.258;2023-06-22T06:57:51;11.07;;;6.40;;
46897;SDS011;32646;50.958;6.258;2023-06-22T07:00:18;13.23;;;6.93;;
46897;SDS011;32646;50.958;6.258;2023-06-22T07:02:45;11.68;;;6.00;;
46897;SDS011;32646;50.958;6.258;2023-06-22T07:05:12;12.85;;;6.95;;
46897;SDS011;32646;50.958;6.258;2023-06-22T07:07:39;12.07;;;6.75;;
46897;SDS011;32646;50.958;6.258;2023-06-22T07:10:06;12.77;;;6.72;;
46897;SDS011;32646;50.958;6.258;2023-06-22T07:12:33;11.15;;;6.30;;
46897;SDS011;32646;50.958;6.258;2023-06-22T07:15:07;12.05;;;6.50;;
46897;SDS011;32646;50.958;6.258;2023-06-22T07:17:35;12.02;;;6.70;;
46897;SDS011;32646;50.958;6.258;2023-06-22T07:20:02;11.32;;;6.50;;
46897;SDS011;32646;50.958;6.258;2023-06-22T07:22:30;11.77;;;6.80;;
46897;SDS011;32646;50.958;6.258;2023-06-22T07:24:56;10.65;;;6.57;;
46897;SDS011;32646;50.958;6.258;2023-06-22T07:27:23;12.57;;;7.05;;
46897;SDS011;32646;50.958;6.258;2023-06-22T07:29:50;11.35;;;6.85;;
46897;SDS011;32646;50.958;6.258;2023-06-22T07:32:16;15.35;;;7.38;;
46897;SDS011;32646;50.958;6.258;2023-06-22T07:34:43;16.70;;;7.35;;
46897;SDS011;32646;50.958;6.258;2023-06-22T07:37:10;10.80;;;6.47;;
46897;SDS011;32646;50.958;6.258;2023-06-22T07:39:36;13.02;;;7.78;;
46897;SDS011;32646;50.958;6.258;2023-06-22T07:42:03;13.30;;;7.70;;
46897;SDS011;32646;50.958;6.258;2023-06-22T07:44:30;13.45;;;7.05;;
46897;SDS011;32646;50.958;6.258;2023-06-22T07:46:56;12.32;;;7.22;;
46897;SDS011;32646;50.958;6.258;2023-06-22T07:49:23;12.15;;;7.10;;
46897;SDS011;32646;50.958;6.258;2023-06-22T07:51:49;10.77;;;6.68;;
46897;SDS011;32646;50.958;6.258;2023-06-22T07:54:16;12.38;;;7.28;;
46897;SDS011;32646;50.958;6.258;2023-06-22T07:56:42;13.05;;;7.88;;
46897;SDS011;32646;50.958;6.258;2023-06-22T07:59:09;12.25;;;6.72;;
46897;SDS011;32646;50.958;6.258;2023-06-22T08:01:36;13.20;;;7.80;;
46897;SDS011;32646;50.958;6.258;2023-06-22T08:04:02;15.20;;;7.28;;
46897;SDS011;32646;50.958;6.258;2023-06-22T08:06:30;14.45;;;7.82;;
46897;SDS011;32646;50.958;6.258;2023-06-22T08:08:56;11.40;;;7.03;;
46897;SDS011;32646;50.958;6.258;2023-06-22T08:11:23;10.85;;;6.90;;
46897;SDS011;32646;50.958;6.258;2023-06-22T08:13:49;13.05;;;7.90;;
46897;SDS011;32646;50.958;6.258;2023-06-22T08:16:16;13.98;;;7.28;;
46897;SDS011;32646;50.958;6.258;2023-06-22T08:18:43;11.82;;;6.70;;
46897;SDS011;32646;50.958;6.258;2023-06-22T08:21:09;12.27;;;7.43;;
46897;SDS011;32646;50.958;6.258;2023-06-22T08:23:36;14.27;;;7.28;;
46897;SDS011;32646;50.958;6.258;2023-06-22T08:26:02;12.95;;;6.80;;
46897;SDS011;32646;50.958;6.258;2023-06-22T08:28:29;14.23;;;6.90;;
46897;SDS011;32646;50.958;6.258;2023-06-22T08:30:55;17.58;;;8.38;;
46897;SDS011;32646;50.958;6.258;2023-06-22T08:33:22;13.15;;;7.45;;
46897;SDS011;32646;50.958;6.258;2023-06-22T08:35:57;11.60;;;7.00;;
46897;SDS011;32646;50.958;6.258;2023-06-22T08:38:24;11.48;;;7.90;;
46897;SDS011;32646;50.958;6.258;2023-06-22T08:40:51;11.88;;;7.00;;
46897;SDS011;32646;50.958;6.258;2023-06-22T08:43:18;13.88;;;9.07;;
46897;SDS011;32646;50.958;6.258;2023-06-22T08:45:44;14.27;;;9.48;;
46897;SDS011;32646;50.958;6.258;2023-06-22T08:48:11;13.95;;;8.15;;
46897;SDS011;32646;50.958;6.258;2023-06-22T08:50:37;14.18;;;8.60;;
46897;SDS011;32646;50.958;6.258;2023-06-22T08:53:04;14.85;;;9.45;;
46897;SDS011;32646;50.958;6.258;2023-06-22T08:55:30;13.00;;;7.65;;
46897;SDS011;32646;50.958;6.258;2023-06-22T08:57:58;13.80;;;8.63;;
46897;SDS011;32646;50.958;6.258;2023-06-22T09:00:24;12.43;;;7.47;;
46897;SDS011;32646;50.958;6.258;2023-06-22T09:02:51;12.10;;;7.05;;
46897;SDS011;32646;50.958;6.258;2023-06-22T09:05:18;13.73;;;7.93;;
46897;SDS011;32646;50.958;6.258;2023-06-22T09:07:45;10.43;;;6.97;;
46897;SDS011;32646;50.958;6.258;2023-06-22T09:10:11;10.70;;;7.20;;
46897;SDS011;32646;50.958;6.258;2023-06-22T09:12:38;10.60;;;7.25;;
46897;SDS011;32646;50.958;6.258;2023-06-22T09:15:05;10.93;;;7.15;;
46897;SDS011;32646;50.958;6.258;2023-06-22T09:17:36;13.23;;;7.70;;
46897;SDS011;32646;50.958;6.258;2023-06-22T09:20:03;11.77;;;7.05;;
46897;SDS011;32646;50.958;6.258;2023-06-22T09:22:32;11.27;;;7.43;;
46897;SDS011;32646;50.958;6.258;2023-06-22T09:24:59;11.18;;;7.97;;
46897;SDS011;32646;50.958;6.258;2023-06-22T09:27:25;12.40;;;7.07;;
46897;SDS011;32646;50.958;6.258;2023-06-22T09:29:52;12.73;;;7.93;;
46897;SDS011;32646;50.958;6.258;2023-06-22T09:32:18;11.23;;;7.18;;
46897;SDS011;32646;50.958;6.258;2023-06-22T09:34:45;13.32;;;7.57;;
46897;SDS011;32646;50.958;6.258;2023-06-22T09:37:12;10.27;;;7.25;;
46897;SDS011;32646;50.958;6.258;2023-06-22T09:39:38;10.70;;;6.97;;
46897;SDS011;32646;50.958;6.258;2023-06-22T09:42:05;11.93;;;7.50;;
46897;SDS011;32646;50.958;6.258;2023-06-22T09:44:32;12.00;;;7.55;;
46897;SDS011;32646;50.958;6.258;2023-06-22T09:46:58;10.90;;;6.88;;
46897;SDS011;32646;50.958;6.258;2023-06-22T09:49:26;12.95;;;7.15;;
46897;SDS011;32646;50.958;6.258;2023-06-22T09:52:12;11.63;;;7.18;;
46897;SDS011;32646;50.958;6.258;2023-06-22T09:54:39;13.52;;;7.90;;
46897;SDS011;32646;50.958;6.258;2023-06-22T09:57:05;12.55;;;7.65;;
46897;SDS011;32646;50.958;6.258;2023-06-22T09:59:32;12.30;;;6.95;;
46897;SDS011;32646;50.958;6.258;2023-06-22T10:01:59;11.05;;;6.90;;
46897;SDS011;32646;50.958;6.258;2023-06-22T10:04:25;12.27;;;6.68;;
46897;SDS011;32646;50.958;6.258;2023-06-22T10:06:52;10.40;;;6.47;;
46897;SDS011;32646;50.958;6.258;2023-06-22T10:09:19;11.90;;;7.07;;
46897;SDS011;32646;50.958;6.258;2023-06-22T10:11:46;11.02;;;6.55;;
46897;SDS011;32646;50.958;6.258;2023-06-22T10:14:12;13.38;;;7.10;;
46897;SDS011;32646;50.958;6.258;2023-06-22T10:16:39;12.25;;;8.15;;
46897;SDS011;32646;50.958;6.258;2023-06-22T10:19:05;16.40;;;8.50;;
46897;SDS011;32646;50.958;6.258;2023-06-22T10:21:32;16.60;;;9.40;;
46897;SDS011;32646;50.958;6.258;2023-06-22T10:23:59;16.27;;;10.40;;
46897;SDS011;32646;50.958;6.258;2023-06-22T10:26:25;14.35;;;8.98;;
46897;SDS011;32646;50.958;6.258;2023-06-22T10:28:54;17.15;;;10.65;;
46897;SDS011;32646;50.958;6.258;2023-06-22T10:31:40;17.77;;;10.38;;
46897;SDS011;32646;50.958;6.258;2023-06-22T10:34:07;17.65;;;10.88;;
46897;SDS011;32646;50.958;6.258;2023-06-22T10:36:33;18.77;;;10.80;;
46897;SDS011;32646;50.958;6.258;2023-06-22T10:39:00;21.00;;;12.55;;
46897;SDS011;32646;50.958;6.258;2023-06-22T10:41:26;23.60;;;12.57;;
46897;SDS011;32646;50.958;6.258;2023-06-22T10:43:53;24.60;;;12.63;;
46897;SDS011;32646;50.958;6.258;2023-06-22T10:46:20;22.90;;;13.32;;
46897;SDS011;32646;50.958;6.258;2023-06-22T10:48:46;26.98;;;14.88;;
46897;SDS011;32646;50.958;6.258;2023-06-22T10:51:13;30.05;;;15.65;;
46897;SDS011;32646;50.958;6.258;2023-06-22T10:53:40;28.00;;;15.88;;
46897;SDS011;32646;50.958;6.258;2023-06-22T10:56:07;25.63;;;15.05;;
46897;SDS011;32646;50.958;6.258;2023-06-22T10:58:33;27.50;;;14.98;;
46897;SDS011;32646;50.958;6.258;2023-06-22T11:01:00;25.38;;;15.32;;
46897;SDS011;32646;50.958;6.258;2023-06-22T11:03:27;27.27;;;14.38;;
46897;SDS011;32646;50.958;6.258;2023-06-22T11:05:54;24.23;;;14.75;;
46897;SDS011;32646;50.958;6.258;2023-06-22T11:08:20;22.80;;;13.05;;
46897;SDS011;32646;50.958;6.258;2023-06-22T11:10:48;21.73;;;13.90;;
46897;SDS011;32646;50.958;6.258;2023-06-22T11:13:17;21.27;;;13.63;;
46897;SDS011;32646;50.958;6.258;2023-06-22T11:15:43;21.65;;;13.38;;
46897;SDS011;32646;50.958;6.258;2023-06-22T11:18:10;20.55;;;13.38;;
46897;SDS011;32646;50.958;6.258;2023-06-22T11:20:37;25.27;;;14.73;;
46897;SDS011;32646;50.958;6.258;2023-06-22T11:23:04;19.60;;;11.43;;
46897;SDS011;32646;50.958;6.258;2023-06-22T11:25:33;18.35;;;10.70;;
46897;SDS011;32646;50.958;6.258;2023-06-22T11:28:01;16.67;;;9.65;;
46897;SDS011;32646;50.958;6.258;2023-06-22T11:30:29;17.02;;;8.73;;
46897;SDS011;32646;50.958;6.258;2023-06-22T11:32:58;12.15;;;7.50;;
46897;SDS011;32646;50.958;6.258;2023-06-22T11:35:25;13.07;;;6.90;;
46897;SDS011;32646;50.958;6.258;2023-06-22T11:37:51;11.45;;;6.93;;
46897;SDS011;32646;50.958;6.258;2023-06-22T11:40:18;13.18;;;6.78;;
46897;SDS011;32646;50.958;6.258;2023-06-22T11:42:45;11.25;;;6.05;;
46897;SDS011;32646;50.958;6.258;2023-06-22T11:45:11;9.35;;;6.22;;
46897;SDS011;32646;50.958;6.258;2023-06-22T11:47:38;10.15;;;6.15;;
46897;SDS011;32646;50.958;6.258;2023-06-22T11:50:05;12.80;;;6.30;;
46897;SDS011;32646;50.958;6.258;2023-06-22T11:52:33;12.50;;;6.70;;
46897;SDS011;32646;50.958;6.258;2023-06-22T11:55:00;11.27;;;6.93;;
46897;SDS011;32646;50.958;6.258;2023-06-22T11:57:26;12.30;;;7.10;;
46897;SDS011;32646;50.958;6.258;2023-06-22T11:59:53;11.20;;;7.20;;
46897;SDS011;32646;50.958;6.258;2023-06-22T12:02:19;12.27;;;7.25;;
46897;SDS011;32646;50.958;6.258;2023-06-22T12:04:46;12.27;;;7.60;;
46897;SDS011;32646;50.958;6.258;2023-06-22T12:07:12;11.30;;;7.53;;
46897;SDS011;32646;50.958;6.258;2023-06-22T12:09:39;12.43;;;7.60;;
46897;SDS011;32646;50.958;6.258;2023-06-22T12:12:06;14.45;;;8.02;;
46897;SDS011;32646;50.958;6.258;2023-06-22T12:14:33;11.25;;;7.20;;
46897;SDS011;32646;50.958;6.258;2023-06-22T12:16:59;13.25;;;7.72;;
46897;SDS011;32646;50.958;6.258;2023-06-22T12:19:26;10.00;;;6.65;;
46897;SDS011;32646;50.958;6.258;2023-06-22T12:21:52;12.98;;;7.72;;
46897;SDS011;32646;50.958;6.258;2023-06-22T12:24:19;12.10;;;7.63;;
46897;SDS011;32646;50.958;6.258;2023-06-22T12:26:46;11.88;;;7.45;;
46897;SDS011;32646;50.958;6.258;2023-06-22T12:29:12;15.82;;;8.40;;
46897;SDS011;32646;50.958;6.258;2023-06-22T12:31:39;13.32;;;7.90;;
46897;SDS011;32646;50.958;6.258;2023-06-22T12:34:06;12.15;;;7.70;;
46897;SDS011;32646;50.958;6.258;2023-06-22T12:36:32;14.55;;;8.27;;
46897;SDS011;32646;50.958;6.258;2023-06-22T12:38:59;16.67;;;9.32;;
46897;SDS011;32646;50.958;6.258;2023-06-22T12:41:25;16.30;;;8.73;;
46897;SDS011;32646;50.958;6.258;2023-06-22T12:43:52;14.00;;;9.13;;
46897;SDS011;32646;50.958;6.258;2023-06-22T12:46:19;16.23;;;10.10;;
46897;SDS011;32646;50.958;6.258;2023-06-22T12:48:45;14.48;;;9.55;;
46897;SDS011;32646;50.958;6.258;2023-06-22T12:51:12;16.52;;;9.55;;
46897;SDS011;32646;50.958;6.258;2023-06-22T12:53:45;17.40;;;10.05;;
46897;SDS011;32646;50.958;6.258;2023-06-22T12:56:12;15.70;;;9.13;;
46897;SDS011;32646;50.958;6.258;2023-06-22T12:58:39;17.02;;;11.02;;
46897;SDS011;32646;50.958;6.258;2023-06-22T13:01:05;16.42;;;10.23;;
46897;SDS011;32646;50.958;6.258;2023-06-22T13:03:32;19.13;;;11.80;;
46897;SDS011;32646;50.958;6.258;2023-06-22T13:05:58;17.10;;;10.68;;
46897;SDS011;32646;50.958;6.258;2023-06-22T13:08:25;16.20;;;10.32;;
46897;SDS011;32646;50.958;6.258;2023-06-22T13:11:11;16.88;;;11.15;;
46897;SDS011;32646;50.958;6.258;2023-06-22T13:13:38;20.25;;;11.80;;
46897;SDS011;32646;50.958;6.258;2023-06-22T13:16:06;18.98;;;12.13;;
46897;SDS011;32646;50.958;6.258;2023-06-22T13:18:33;22.17;;;11.82;;
46897;SDS011;32646;50.958;6.258;2023-06-22T13:21:00;17.10;;;11.23;;
46897;SDS011;32646;50.958;6.258;2023-06-22T13:23:26;18.75;;;11.57;;
46897;SDS011;32646;50.958;6.258;2023-06-22T13:25:53;18.70;;;10.48;;
46897;SDS011;32646;50.958;6.258;2023-06-22T13:28:20;16.90;;;11.55;;
46897;SDS011;32646;50.958;6.258;2023-06-22T13:30:54;16.67;;;11.10;;
46897;SDS011;32646;50.958;6.258;2023-06-22T13:33:21;18.42;;;11.82;;
46897;SDS011;32646;50.958;6.258;2023-06-22T13:35:47;17.85;;;11.27;;
46897;SDS011;32646;50.958;6.258;2023-06-22T13:38:14;17.80;;;11.02;;
46897;SDS011;32646;50.958;6.258;2023-06-22T13:40:41;18.38;;;11.13;;
46897;SDS011;32646;50.958;6.258;2023-06-22T13:43:08;19.23;;;11.50;;
46897;SDS011;32646;50.958;6.258;2023-06-22T13:45:34;21.48;;;12.40;;
46897;SDS011;32646;50.958;6.258;2023-06-22T13:48:01;18.25;;;11.35;;
46897;SDS011;32646;50.958;6.258;2023-06-22T13:50:28;20.75;;;12.52;;
46897;SDS011;32646;50.958;6.258;2023-06-22T13:52:55;21.33;;;11.70;;
46897;SDS011;32646;50.958;6.258;2023-06-22T13:55:22;20.83;;;12.65;;
46897;SDS011;32646;50.958;6.258;2023-06-22T13:57:48;18.33;;;11.38;;
46897;SDS011;32646;50.958;6.258;2023-06-22T14:00:15;25.02;;;13.02;;
46897;SDS011;32646;50.958;6.258;2023-06-22T14:02:42;18.05;;;10.82;;
46897;SDS011;32646;50.958;6.258;2023-06-22T14:05:09;21.35;;;12.40;;
46897;SDS011;32646;50.958;6.258;2023-06-22T14:07:35;24.08;;;13.00;;
46897;SDS011;32646;50.958;6.258;2023-06-22T14:10:02;21.45;;;13.43;;
46897;SDS011;32646;50.958;6.258;2023-06-22T14:12:30;22.20;;;13.00;;
46897;SDS011;32646;50.958;6.258;2023-06-22T14:14:56;24.50;;;14.05;;
46897;SDS011;32646;50.958;6.258;2023-06-22T14:17:23;22.27;;;13.82;;
46897;SDS011;32646;50.958;6.258;2023-06-22T14:19:49;25.33;;;13.32;;
46897;SDS011;32646;50.958;6.258;2023-06-22T14:22:16;26.23;;;14.35;;
46897;SDS011;32646;50.958;6.258;2023-06-22T14:24:43;24.23;;;13.50;;
46897;SDS011;32646;50.958;6.258;2023-06-22T14:27:09;26.73;;;15.85;;
46897;SDS011;32646;50.958;6.258;2023-06-22T14:29:36;28.35;;;15.73;;
46897;SDS011;32646;50.958;6.258;2023-06-22T14:32:06;28.55;;;16.42;;
46897;SDS011;32646;50.958;6.258;2023-06-22T14:34:33;28.45;;;17.83;;
46897;SDS011;32646;50.958;6.258;2023-06-22T14:37:00;30.58;;;17.55;;